Olbia, Italy

1:26 PM CEST on July 25, 2016 (GMT +0200)
Costa Smeralda | | Change Station

Elev 43 ft 40.90 °N, 9.52 °E | Updated 6 minutes ago

Scattered Clouds
Scattered Clouds
88 °F
Feels Like 89 °F
N
6
Wind Variable Wind from Variable

Today
High -- | Low -- °F
--% Chance of Precip.
Yesterday
High -- | Low -- °F
Precip. -- in
Pressure 29.98 in
Visibility 6.2 miles
Clouds Scattered Clouds 3000 ft
Heat Index 89 °F
Dew Point 64 °F
Humidity 46%
Rainfall 0.00 in
Snow Depth Not available.
6:11 AM 8:44 PM
Waning Gibbous, 67% visible
METAR LIEO 251120Z VRB05KT 9999 SCT030 31/18 Q1015
Pressure 29.98 in
Visibility 6.2 miles
Clouds Scattered Clouds 3000 ft
Heat Index 89 °F
Dew Point 64 °F
Humidity 46%
Rainfall 0.00 in
Snow Depth Not available.
6:11 AM 8:44 PM
Waning Gibbous, 67% visible
METAR LIEO 251120Z VRB05KT 9999 SCT030 31/18 Q1015

10-Day Weather Forecast

×

Almanac

Astronomy

Jul. 25, 2016 Rise Set
Actual Time
Civil Twilight
Nautical Twilight
Astronomical Twilight
Moon
Length of Visible Light
Length of Day
Tomorrow will be .
, % of the Moon is Illuminated

Today's Extremes

Country Highs Country Lows

Community

WunderPhotos

Upload Photos

1,927,291 photos uploaded!

WunderBlog® & News

Nearby

Air Quality

  Air Quality AQ Index Pollutant
Not available.

Snow Depth

Station Depth Elevation

Earthquake Activity

City Distance Mag. Time & Date
Minimum magnitude displayed is 2.5.

Coastal Water Temperatures

Place Temperature

Stations

Nearby Weather Stations

Station Location Temp. Windchill Dew Point Humidity Wind Precip. Elev Updated Type